Aviation Digital Data Service (ADDS)

Output produced by METARs form (1821 UTC 26 May 2016)
found at http://www.aviationweather.gov/adds/metars/
 
KIPT 261754Z 19010KT 10SM FEW120 29/12 A3003 RMK AO2 SLP165 T02940122 10300 20156 58020
KIPT 261654Z 18006KT 10SM CLR 29/11 A3005 RMK AO2 SLP171 T02890106
KIPT 261554Z 11005KT 10SM CLR 25/15 A3008 RMK AO2 SLP181 T02500150
KIPT 261454Z 12004KT 10SM CLR 22/13 A3009 RMK AO2 SLP185 T02170133 58016
KIPT 261354Z 00000KT 10SM CLR 19/12 A3010 RMK AO2 SLP192 T01940122
KIPT 261254Z 00000KT 10SM SCT110 17/12 A3012 RMK AO2 SLP198 T01670122
KIPT 261154Z 00000KT 10SM BKN110 16/12 A3013 RMK AO2 SLP201 60000 T01560117 10156 20133 53006
KIPT 261054Z 00000KT 10SM OVC120 15/12 A3013 RMK AO2 RAB00E20 SLP198 P0000 T01500117
KIPT 260954Z AUTO 00000KT 10SM FEW095 OVC120 15/11 A3011 RMK AO2 SLP193 T01500111
KIPT 260854Z AUTO 31003KT 10SM FEW120 14/11 A3011 RMK AO2 SLP194 T01390111 53007
KIPT 260754Z AUTO 00000KT 10SM CLR 14/11 A3010 RMK AO2 SLP191 T01390111
KIPT 260654Z AUTO 00000KT 10SM CLR 14/11 A3009 RMK AO2 SLP187 T01440106
KIPT 260554Z AUTO 00000KT 10SM CLR 16/11 A3009 RMK AO2 SLP187 T01560111 10272 20150 50005
KIPT 260454Z AUTO 22003KT 10SM CLR 16/12 A3010 RMK AO2 SLP188 T01560117 403170078
KIPT 260354Z AUTO 00000KT 10SM CLR 17/12 A3009 RMK AO2 SLP184 T01720117
KIPT 260254Z AUTO 00000KT 10SM CLR 19/11 A3008 RMK AO2 SLP182 T01890111 52017
KIPT 260154Z 00000KT 10SM CLR 21/11 A3006 RMK AO2 SLP178 T02110111
KIPT 260054Z 32005KT 10SM CLR 25/08 A3004 RMK AO2 SLP169 T02500078
KIPT 252354Z 25004KT 10SM CLR 27/08 A3003 RMK AO2 SLP165 T02670083 10317 20267 55000
KIPT 252254Z 25010KT 10SM CLR 29/08 A3002 RMK AO2 SLP164 T02940078
KIPT 252154Z 24007KT 10SM CLR 31/07 A3003 RMK AO2 SLP165 T03110072
KIPT 252054Z 25007KT 10SM CLR 32/07 A3003 RMK AO2 SLP166 T03170067 57014
KIPT 251954Z 24011KT 10SM CLR 32/07 A3004 RMK AO2 SLP170 T03170067
KIPT 251854Z 24010KT 10SM CLR 31/08 A3006 RMK AO2 SLP176 T03060078
KIPT 251754Z 24013KT 10SM CLR 31/05 A3007 RMK AO2 SLP179 T03060050 10306 20133 58013
KIPT 251654Z 27008KT 10SM CLR 29/09 A3008 RMK AO2 SLP183 T02890094
KIPT 251554Z 26007KT 10SM CLR 27/11 A3010 RMK AO2 SLP191 T02670106
KIPT 251454Z VRB05KT 10SM CLR 23/10 A3011 RMK AO2 SLP193 T02330100 58009
KIPT 251354Z 24006KT 10SM CLR 19/08 A3012 RMK AO2 SLP198 T01940083 $
KIPT 251254Z 00000KT 10SM CLR 17/08 A3013 RMK AO2 SLP200 T01670083 $
KIPT 251154Z 00000KT 10SM CLR 13/08 A3013 RMK AO2 SLP202 T01330078 10133 20078 51018
KIPT 251054Z 00000KT 10SM CLR 10/07 A3012 RMK AO2 SLP198 T01000067
KIPT 250954Z AUTO 00000KT 10SM CLR 08/06 A3011 RMK AO2 SLP193 T00830056
KIPT 250854Z AUTO 00000KT 10SM CLR 09/06 A3008 RMK AO2 SLP183 T00890061 53011
KIPT 250754Z AUTO 00000KT 10SM CLR 09/06 A3006 RMK AO2 SLP178 T00940061
KIPT 250654Z AUTO 31003KT 10SM CLR 10/06 A3005 RMK AO2 SLP174 T01000061